Time;durP1;ratioP1;P1;durP2;ratioP2;P2;SDS_P1;SDS_P2;PMS_P1;PMS_P2;Temp;Humidity;BMP_temperature;BMP_pressure;BME280_temperature;BME280_humidity;BME280_pressure;Samples;Min_cycle;Max_cycle;Signal;HPM_P1;HPM_P2
2022/12/29 00:02:12;;;;;;;3.03;1.60;;;11.90;99.90;;;;;;5078093;28;20221;-60
2022/12/29 00:04:40;;;;;;;3.00;1.40;;;11.90;99.90;;;;;;5078503;28;20204;-61
2022/12/29 00:07:07;;;;;;;2.80;1.57;;;12.00;99.90;;;;;;5078453;28;20205;-60
2022/12/29 00:09:35;;;;;;;3.00;1.43;;;12.10;99.90;;;;;;5078625;28;20209;-60
2022/12/29 00:12:03;;;;;;;2.63;1.40;;;12.10;99.90;;;;;;5077834;28;20220;-59
2022/12/29 00:17:14;;;;;;;3.30;1.40;;;12.10;99.90;;;;;;5078180;28;20200;-59
2022/12/29 00:36:17;;;;;;;1.97;1.20;;;12.30;99.90;;;;;;5076796;28;20208;-59
2022/12/29 00:44:17;;;;;;;2.23;1.30;;;12.40;99.90;;;;;;5075330;28;20196;-59
2022/12/29 00:46:44;;;;;;;2.90;1.30;;;12.40;99.90;;;;;;5075578;28;20316;-60
2022/12/29 00:49:31;;;;;;;5.07;1.40;;;12.40;99.90;;;;;;5074829;28;20549;-59
2022/12/29 00:52:02;;;;;;;1.53;1.30;;;12.50;99.90;;;;;;5074560;28;20227;-60
2022/12/29 00:54:30;;;;;;;2.70;1.50;;;12.50;99.90;;;;;;5074799;28;20232;-60
2022/12/29 00:56:57;;;;;;;2.43;1.30;;;12.60;99.90;;;;;;5074566;28;20205;-60
2022/12/29 00:59:24;;;;;;;2.80;1.20;;;12.60;99.90;;;;;;5074779;28;20204;-59
2022/12/29 01:01:51;;;;;;;3.87;1.40;;;12.60;99.90;;;;;;5074324;28;20257;-60
2022/12/29 01:04:19;;;;;;;2.17;1.13;;;12.60;99.90;;;;;;5074455;28;20232;-60
2022/12/29 01:06:45;;;;;;;1.30;1.00;;;12.70;99.90;;;;;;5074436;28;20205;-59
2022/12/29 01:11:58;;;;;;;3.93;1.40;;;12.70;99.90;;;;;;5074353;28;20319;-60
2022/12/29 01:14:25;;;;;;;2.30;1.00;;;12.70;99.90;;;;;;5074396;28;20228;-60
2022/12/29 01:16:52;;;;;;;1.93;1.20;;;12.70;99.90;;;;;;5074343;28;20207;-59
2022/12/29 01:19:19;;;;;;;2.40;1.30;;;12.70;99.90;;;;;;5074222;28;20205;-60
2022/12/29 01:21:47;;;;;;;1.43;1.23;;;12.70;99.90;;;;;;5074093;28;20228;-59
2022/12/29 01:24:15;;;;;;;2.90;1.13;;;12.80;99.90;;;;;;5074263;28;20238;-60
2022/12/29 01:26:42;;;;;;;2.57;1.30;;;12.80;99.90;;;;;;5074210;28;20208;-59
2022/12/29 01:29:09;;;;;;;3.57;1.20;;;12.90;99.90;;;;;;5074353;28;20205;-60
2022/12/29 01:31:37;;;;;;;2.60;1.30;;;12.90;99.90;;;;;;5074278;28;20236;-60
2022/12/29 01:34:03;;;;;;;2.83;1.20;;;12.90;99.90;;;;;;5074508;28;20201;-59
2022/12/29 01:36:30;;;;;;;2.47;1.10;;;12.90;99.90;;;;;;5074666;28;20227;-60
2022/12/29 01:38:57;;;;;;;2.00;1.20;;;12.90;99.90;;;;;;5074205;28;20254;-59
2022/12/29 01:41:26;;;;;;;2.70;1.10;;;12.90;99.90;;;;;;5074046;28;20251;-60
2022/12/29 01:43:54;;;;;;;2.33;1.00;;;12.90;99.90;;;;;;5073808;28;20201;-60
2022/12/29 01:46:26;;;;;;;2.87;1.07;;;13.00;99.90;;;;;;5074087;28;20680;-59
2022/12/29 01:48:56;;;;;;;1.73;1.13;;;13.00;99.90;;;;;;5074027;28;20212;-60
2022/12/29 01:51:25;;;;;;;2.87;1.27;;;13.00;99.90;;;;;;5075240;28;20232;-60
2022/12/29 01:53:54;;;;;;;2.77;0.97;;;12.90;99.90;;;;;;5073869;28;20209;-60
2022/12/29 01:56:21;;;;;;;3.57;1.50;;;13.00;99.90;;;;;;5073621;28;20224;-60
2022/12/29 01:58:56;;;;;;;2.00;0.93;;;12.90;99.90;;;;;;5073764;28;20204;-60
2022/12/29 02:01:23;;;;;;;4.17;1.73;;;12.90;99.90;;;;;;5073809;28;20224;-60
2022/12/29 02:03:50;;;;;;;1.80;1.10;;;12.90;99.90;;;;;;5073382;28;20232;-60
2022/12/29 02:06:22;;;;;;;2.17;1.07;;;13.00;99.90;;;;;;5073651;28;20209;-60
2022/12/29 02:08:51;;;;;;;2.17;1.20;;;13.10;99.90;;;;;;5073967;28;20208;-60
2022/12/29 02:11:18;;;;;;;5.10;1.10;;;13.00;99.90;;;;;;5073745;28;20247;-60
2022/12/29 02:13:44;;;;;;;2.00;1.30;;;13.00;99.90;;;;;;5073540;28;20209;-60
2022/12/29 02:16:27;;;;;;;5.27;1.30;;;13.10;99.90;;;;;;5073406;28;20221;-60
2022/12/29 02:19:10;;;;;;;1.30;0.93;;;13.20;99.90;;;;;;5073382;28;20669;-60
2022/12/29 02:22:02;;;;;;;1.93;1.33;;;13.20;99.90;;;;;;5074242;28;20608;-60
2022/12/29 02:25:01;;;;;;;3.30;1.27;;;13.20;99.90;;;;;;5070197;28;20201;-59
2022/12/29 02:27:44;;;;;;;2.00;1.20;;;13.20;99.90;;;;;;5068418;28;20204;-59
2022/12/29 02:30:41;;;;;;;3.77;1.37;;;13.10;99.90;;;;;;5073292;28;20208;-60
2022/12/29 02:33:19;;;;;;;2.13;1.20;;;13.20;99.90;;;;;;5072539;28;20608;-59
2022/12/29 02:35:54;;;;;;;3.53;1.33;;;13.10;99.90;;;;;;5073070;28;20240;-59
2022/12/29 02:38:34;;;;;;;3.13;1.10;;;13.10;99.90;;;;;;5073280;28;20221;-59
2022/12/29 02:41:08;;;;;;;2.87;1.07;;;13.00;99.90;;;;;;5072978;28;20208;-59
2022/12/29 02:43:40;;;;;;;2.67;1.33;;;13.20;99.90;;;;;;5072739;28;20205;-59
2022/12/29 02:46:17;;;;;;;2.13;1.20;;;13.10;99.90;;;;;;5073005;28;20216;-59
2022/12/29 02:48:49;;;;;;;1.77;1.10;;;13.10;99.90;;;;;;5072784;28;20205;-59
2022/12/29 02:51:21;;;;;;;2.17;1.27;;;13.20;99.90;;;;;;5073494;28;20228;-60
2022/12/29 02:56:32;;;;;;;2.07;0.97;;;13.30;99.90;;;;;;5072754;28;20668;-59
2022/12/29 02:58:59;;;;;;;1.87;1.10;;;13.30;99.90;;;;;;5072203;28;20212;-59
2022/12/29 03:02:16;;;;;;;2.17;1.10;;;13.20;99.90;;;;;;5072812;28;20221;-60
2022/12/29 03:04:39;;;;;;;2.17;1.20;;;13.20;99.90;;;;;;5072238;28;20603;-59
2022/12/29 03:07:14;;;;;;;2.53;1.20;;;13.20;99.90;;;;;;5072737;28;20205;-60
2022/12/29 03:09:48;;;;;;;3.03;1.13;;;13.20;99.90;;;;;;5073075;28;20204;-59
2022/12/29 03:18:15;;;;;;;1.67;1.00;;;13.20;99.90;;;;;;5072611;28;20200;-60
2022/12/29 03:20:48;;;;;;;2.43;1.00;;;13.20;99.90;;;;;;5073159;28;20205;-60
2022/12/29 03:23:16;;;;;;;2.70;1.00;;;13.20;99.90;;;;;;5072389;28;20229;-59
2022/12/29 03:25:47;;;;;;;1.37;0.80;;;13.20;99.90;;;;;;5072734;28;20201;-60
2022/12/29 03:28:18;;;;;;;2.47;1.10;;;13.20;99.90;;;;;;5072515;28;20695;-60
2022/12/29 03:30:47;;;;;;;2.10;0.90;;;13.20;99.90;;;;;;5072456;28;20213;-60
2022/12/29 03:33:18;;;;;;;3.37;1.03;;;13.20;99.90;;;;;;5072458;28;20236;-60
2022/12/29 03:35:49;;;;;;;2.43;1.00;;;13.20;99.90;;;;;;5072638;28;20263;-60
2022/12/29 03:38:20;;;;;;;2.37;1.00;;;13.20;99.90;;;;;;5072393;28;20212;-59
2022/12/29 03:40:51;;;;;;;4.03;1.00;;;13.20;99.90;;;;;;5072399;28;20680;-60
2022/12/29 03:43:18;;;;;;;3.13;1.10;;;13.20;99.90;;;;;;5072238;28;20229;-59
2022/12/29 03:45:45;;;;;;;1.77;1.00;;;13.30;99.90;;;;;;5072374;28;20208;-60
2022/12/29 03:48:12;;;;;;;2.90;1.00;;;13.30;99.90;;;;;;5072376;28;20650;-59
2022/12/29 03:50:40;;;;;;;1.53;0.93;;;13.50;99.90;;;;;;5072843;28;20213;-60
2022/12/29 03:53:07;;;;;;;1.67;0.83;;;13.50;99.90;;;;;;5072267;28;20256;-59
2022/12/29 03:55:34;;;;;;;1.10;0.90;;;13.50;99.90;;;;;;5072849;28;20307;-60
2022/12/29 03:58:01;;;;;;;2.73;1.00;;;13.60;99.90;;;;;;5072382;28;20224;-60
2022/12/29 04:00:28;;;;;;;2.10;1.03;;;13.50;99.90;;;;;;5071906;28;20216;-60
2022/12/29 04:02:54;;;;;;;2.90;1.20;;;13.50;99.90;;;;;;5071999;28;20225;-60
2022/12/29 04:05:21;;;;;;;1.80;1.00;;;13.50;99.90;;;;;;5072053;28;20208;-60
2022/12/29 04:07:49;;;;;;;1.70;0.90;;;13.50;99.90;;;;;;5072100;28;20562;-60
2022/12/29 04:10:16;;;;;;;2.10;1.07;;;13.50;99.90;;;;;;5072469;28;20215;-60
2022/12/29 04:12:45;;;;;;;1.63;0.80;;;13.50;99.90;;;;;;5074310;28;20716;-59
2022/12/29 04:15:12;;;;;;;2.37;1.00;;;13.50;99.90;;;;;;5075745;28;20674;-59
2022/12/29 04:17:39;;;;;;;1.27;1.00;;;13.30;99.90;;;;;;5075931;28;20201;-59
2022/12/29 04:22:59;;;;;;;2.37;0.80;;;13.10;99.90;;;;;;5075982;28;20270;-60
2022/12/29 04:25:26;;;;;;;3.63;1.07;;;13.00;99.90;;;;;;5075696;28;20208;-60
2022/12/29 04:27:52;;;;;;;1.57;0.90;;;12.90;99.90;;;;;;5075540;28;20212;-60
2022/12/29 04:30:19;;;;;;;4.73;1.57;;;12.80;99.90;;;;;;5075541;28;20212;-59
2022/12/29 04:32:46;;;;;;;1.50;0.73;;;12.90;99.90;;;;;;5074900;28;20240;-59
2022/12/29 04:35:12;;;;;;;4.67;1.10;;;12.90;99.90;;;;;;5075605;28;20205;-60
2022/12/29 04:37:39;;;;;;;1.20;0.90;;;13.10;99.90;;;;;;5075433;28;20205;-60
2022/12/29 04:40:09;;;;;;;6.83;1.23;;;13.10;99.90;;;;;;5075660;28;20701;-59
2022/12/29 04:42:36;;;;;;;3.43;0.90;;;13.20;99.90;;;;;;5074935;28;20236;-60
2022/12/29 04:45:02;;;;;;;1.63;1.00;;;13.30;99.90;;;;;;5075300;28;20209;-60
2022/12/29 04:47:29;;;;;;;3.03;0.90;;;13.40;99.90;;;;;;5075299;28;20220;-60
2022/12/29 04:49:56;;;;;;;2.97;0.90;;;13.40;99.90;;;;;;5075550;28;20209;-60
2022/12/29 04:52:22;;;;;;;3.60;1.03;;;13.40;99.90;;;;;;5075347;28;20278;-60
2022/12/29 04:54:49;;;;;;;2.43;1.07;;;13.30;99.90;;;;;;5075205;28;20579;-60
2022/12/29 04:57:17;;;;;;;2.47;1.10;;;13.30;99.90;;;;;;5075148;28;20707;-60
2022/12/29 04:59:44;;;;;;;1.93;1.30;;;13.20;99.90;;;;;;5075326;28;20213;-60
2022/12/29 05:02:11;;;;;;;1.80;1.10;;;13.10;99.90;;;;;;5075257;28;20232;-60
2022/12/29 05:04:37;;;;;;;2.03;1.00;;;12.90;99.90;;;;;;5075729;28;20212;-60
2022/12/29 05:07:04;;;;;;;4.30;1.20;;;12.80;99.90;;;;;;5075193;28;20205;-59
2022/12/29 05:09:31;;;;;;;2.10;1.27;;;12.70;99.90;;;;;;5075582;28;20212;-61
2022/12/29 05:11:57;;;;;;;3.53;1.37;;;12.60;99.90;;;;;;5075285;28;20225;-60
2022/12/29 05:14:25;;;;;;;3.47;1.63;;;12.60;99.90;;;;;;5074652;28;20664;-60
2022/12/29 05:16:52;;;;;;;4.47;1.30;;;12.50;99.90;;;;;;5075352;28;20255;-60
2022/12/29 05:19:19;;;;;;;2.33;1.30;;;12.50;99.90;;;;;;5074998;28;20205;-60
2022/12/29 05:21:46;;;;;;;2.80;1.07;;;12.40;99.90;;;;;;5074868;28;20272;-60
2022/12/29 05:24:12;;;;;;;2.10;1.30;;;12.40;99.90;;;;;;5073833;28;20208;-60
2022/12/29 05:26:39;;;;;;;2.03;1.07;;;12.40;99.90;;;;;;5074633;28;20208;-60
2022/12/29 05:29:06;;;;;;;1.73;0.80;;;12.20;99.90;;;;;;5074729;28;20201;-61
2022/12/29 05:31:35;;;;;;;2.00;1.13;;;12.30;99.90;;;;;;5075004;28;20417;-61
2022/12/29 05:34:02;;;;;;;2.93;1.30;;;12.30;99.90;;;;;;5074373;28;20665;-61
2022/12/29 05:36:28;;;;;;;1.47;0.90;;;12.20;99.90;;;;;;5074598;28;20221;-61
2022/12/29 05:38:55;;;;;;;2.07;1.20;;;12.20;99.90;;;;;;5074547;28;20204;-60
2022/12/29 05:41:22;;;;;;;1.80;1.10;;;12.10;99.90;;;;;;5074267;28;20600;-61
2022/12/29 05:43:49;;;;;;;1.33;1.10;;;12.10;99.90;;;;;;5073998;28;20212;-61
2022/12/29 05:46:16;;;;;;;1.30;0.90;;;12.10;99.90;;;;;;5074378;28;20205;-60
2022/12/29 05:48:44;;;;;;;1.83;1.10;;;12.10;99.90;;;;;;5074547;28;20652;-61
2022/12/29 05:51:11;;;;;;;4.73;1.40;;;12.10;99.90;;;;;;5074347;28;20208;-61
2022/12/29 05:53:37;;;;;;;1.97;1.20;;;12.10;99.90;;;;;;5073967;28;20406;-60
2022/12/29 05:56:04;;;;;;;7.40;1.97;;;12.10;99.90;;;;;;5073810;28;20226;-63
2022/12/29 05:58:31;;;;;;;2.33;1.40;;;12.00;99.90;;;;;;5074369;28;20262;-62
2022/12/29 06:00:58;;;;;;;3.40;1.47;;;12.10;99.90;;;;;;5073948;28;20209;-61
2022/12/29 06:03:25;;;;;;;2.63;1.10;;;12.10;99.90;;;;;;5074956;28;20665;-61
2022/12/29 06:05:53;;;;;;;2.97;1.33;;;12.10;99.90;;;;;;5075093;28;20204;-63
2022/12/29 06:08:20;;;;;;;2.43;1.23;;;12.20;99.90;;;;;;5075108;28;20204;-60
2022/12/29 06:10:46;;;;;;;2.57;1.37;;;12.20;99.90;;;;;;5073924;28;20201;-61
2022/12/29 06:13:13;;;;;;;2.20;1.63;;;12.20;99.90;;;;;;5073891;28;20255;-61
2022/12/29 06:15:40;;;;;;;2.20;1.70;;;12.30;99.90;;;;;;5073703;28;20243;-60
2022/12/29 06:18:06;;;;;;;2.17;1.13;;;12.20;99.90;;;;;;5073940;28;20259;-60
2022/12/29 06:20:33;;;;;;;3.60;1.33;;;12.10;99.90;;;;;;5074255;28;20208;-61
2022/12/29 06:23:01;;;;;;;2.97;1.27;;;12.00;99.90;;;;;;5073448;28;20231;-59
2022/12/29 06:25:30;;;;;;;6.13;1.30;;;11.90;99.90;;;;;;5073553;28;20576;-59
2022/12/29 06:27:57;;;;;;;2.13;1.30;;;12.00;99.90;;;;;;5073906;28;20211;-58
2022/12/29 06:30:24;;;;;;;3.70;1.63;;;11.90;99.90;;;;;;5073598;28;20204;-61
2022/12/29 06:32:51;;;;;;;2.67;1.30;;;12.10;99.90;;;;;;5073784;28;20229;-61
2022/12/29 06:35:18;;;;;;;2.70;1.60;;;12.00;99.90;;;;;;5072930;28;20213;-59
2022/12/29 06:37:44;;;;;;;5.97;1.20;;;12.10;99.90;;;;;;5073376;28;20232;-60
2022/12/29 06:40:13;;;;;;;2.23;1.20;;;12.10;99.90;;;;;;5073884;28;20588;-61
2022/12/29 06:42:39;;;;;;;3.00;1.50;;;12.30;99.90;;;;;;5072993;28;20224;-60
2022/12/29 06:45:07;;;;;;;1.60;1.17;;;12.40;99.90;;;;;;5073222;28;20232;-60
2022/12/29 06:47:34;;;;;;;4.83;1.23;;;12.50;99.90;;;;;;5072853;28;20718;-59
2022/12/29 06:50:00;;;;;;;2.57;1.17;;;12.60;99.90;;;;;;5072736;28;20251;-60
2022/12/29 06:52:28;;;;;;;2.20;1.13;;;12.60;99.90;;;;;;5072685;28;20229;-60
2022/12/29 06:54:55;;;;;;;2.13;1.20;;;12.70;99.90;;;;;;5073263;28;20241;-61
2022/12/29 06:57:23;;;;;;;2.40;1.10;;;12.70;99.90;;;;;;5073412;28;20684;-61
2022/12/29 06:59:49;;;;;;;1.83;1.07;;;12.80;99.90;;;;;;5073923;28;20216;-61
2022/12/29 07:02:18;;;;;;;2.80;1.30;;;12.80;99.90;;;;;;5073292;28;20288;-60
2022/12/29 07:04:44;;;;;;;3.80;1.30;;;12.90;99.90;;;;;;5072806;28;20684;-60
2022/12/29 07:07:11;;;;;;;2.07;1.20;;;13.00;99.90;;;;;;5072869;28;20216;-60
2022/12/29 07:09:38;;;;;;;2.60;1.70;;;13.00;99.90;;;;;;5072845;28;20209;-61
2022/12/29 07:12:05;;;;;;;4.67;1.70;;;13.10;99.90;;;;;;5072521;28;20227;-61
2022/12/29 07:14:33;;;;;;;2.60;1.50;;;13.10;99.90;;;;;;5073178;28;20223;-61
2022/12/29 07:17:00;;;;;;;5.10;2.40;;;13.10;99.90;;;;;;5072910;28;20655;-61
2022/12/29 07:19:27;;;;;;;3.13;1.47;;;13.20;99.90;;;;;;5072960;28;20205;-60
2022/12/29 07:21:55;;;;;;;3.33;1.27;;;13.10;99.90;;;;;;5072807;28;20220;-60
2022/12/29 07:24:22;;;;;;;3.10;1.50;;;13.10;99.90;;;;;;5073076;28;20204;-61
2022/12/29 07:26:49;;;;;;;3.97;1.50;;;13.00;99.90;;;;;;5073182;28;20653;-60
2022/12/29 07:29:15;;;;;;;2.77;2.17;;;13.00;99.90;;;;;;5073289;28;20205;-61
2022/12/29 07:31:43;;;;;;;2.67;1.47;;;13.00;99.90;;;;;;5073508;28;20661;-60
2022/12/29 07:34:10;;;;;;;3.43;1.73;;;13.00;99.90;;;;;;5072449;28;20208;-60
2022/12/29 07:36:37;;;;;;;3.40;1.93;;;12.90;99.90;;;;;;5072932;28;20630;-59
2022/12/29 07:39:04;;;;;;;2.13;1.70;;;12.90;99.90;;;;;;5072794;28;20205;-60
2022/12/29 07:41:31;;;;;;;2.00;1.20;;;12.90;99.90;;;;;;5072345;28;20724;-60
2022/12/29 07:43:58;;;;;;;3.33;1.50;;;12.90;99.90;;;;;;5072263;28;20262;-59
2022/12/29 07:46:25;;;;;;;3.67;1.60;;;13.00;99.90;;;;;;5074745;28;20200;-59
2022/12/29 07:48:53;;;;;;;2.07;1.33;;;13.10;99.90;;;;;;5076612;28;20209;-59
2022/12/29 07:51:20;;;;;;;3.60;1.20;;;13.20;99.90;;;;;;5076462;28;20256;-59
2022/12/29 07:53:47;;;;;;;5.77;1.33;;;13.30;99.90;;;;;;5076063;28;20213;-60
2022/12/29 07:56:13;;;;;;;1.70;1.33;;;13.40;99.90;;;;;;5076451;28;20203;-59
2022/12/29 07:58:40;;;;;;;2.37;1.47;;;13.40;99.90;;;;;;5076402;28;20205;-60
2022/12/29 08:01:07;;;;;;;3.07;1.60;;;13.50;99.90;;;;;;5076066;28;20617;-59
2022/12/29 08:03:33;;;;;;;1.23;1.00;;;13.50;99.90;;;;;;5076069;28;20587;-60
2022/12/29 08:06:02;;;;;;;2.57;1.53;;;13.60;99.90;;;;;;5076091;28;20209;-60
2022/12/29 08:08:28;;;;;;;9.87;6.67;;;13.70;99.90;;;;;;5075784;28;20208;-61
2022/12/29 08:10:55;;;;;;;3.23;1.30;;;13.80;99.90;;;;;;5076073;28;20207;-60
2022/12/29 08:13:22;;;;;;;2.10;1.20;;;13.90;99.90;;;;;;5075788;28;20205;-60
2022/12/29 08:15:48;;;;;;;1.70;1.33;;;13.90;99.90;;;;;;5075837;28;20216;-59
2022/12/29 08:18:15;;;;;;;3.53;1.13;;;14.00;99.90;;;;;;5076002;28;20249;-60
2022/12/29 08:20:42;;;;;;;2.73;1.20;;;14.00;99.90;;;;;;5075921;28;20209;-60
2022/12/29 08:23:10;;;;;;;1.20;1.00;;;14.00;99.90;;;;;;5075429;28;20236;-60
2022/12/29 08:25:37;;;;;;;2.30;1.20;;;14.00;99.90;;;;;;5075242;28;20215;-60
2022/12/29 08:28:03;;;;;;;1.10;0.90;;;13.90;99.90;;;;;;5075240;28;20201;-59
2022/12/29 08:30:30;;;;;;;3.03;1.33;;;13.90;99.90;;;;;;5075596;28;20217;-60
2022/12/29 08:32:57;;;;;;;2.43;1.40;;;13.90;99.90;;;;;;5074931;28;20232;-60
2022/12/29 08:35:23;;;;;;;2.57;1.23;;;13.90;99.90;;;;;;5075107;28;20209;-60
2022/12/29 08:37:50;;;;;;;5.07;1.10;;;14.00;99.90;;;;;;5075112;28;20228;-60
2022/12/29 08:40:18;;;;;;;2.37;1.27;;;14.00;99.90;;;;;;5075345;28;20228;-60
2022/12/29 08:42:45;;;;;;;3.47;1.57;;;14.00;99.90;;;;;;5074533;28;20228;-60
2022/12/29 08:45:12;;;;;;;1.40;1.00;;;14.00;99.90;;;;;;5074880;28;20661;-59
2022/12/29 08:47:38;;;;;;;2.43;1.30;;;14.20;99.90;;;;;;5075385;28;20201;-61
2022/12/29 08:50:06;;;;;;;3.20;1.27;;;14.20;99.90;;;;;;5075734;28;20201;-62
2022/12/29 08:52:33;;;;;;;2.10;1.37;;;14.20;99.90;;;;;;5075117;28;20247;-60
2022/12/29 08:55:00;;;;;;;2.47;1.20;;;14.40;99.90;;;;;;5075505;28;20216;-64
2022/12/29 08:57:28;;;;;;;2.13;1.47;;;14.50;99.90;;;;;;5074715;28;20231;-61
2022/12/29 08:59:54;;;;;;;1.90;1.20;;;14.70;99.90;;;;;;5075751;28;20209;-61
2022/12/29 09:02:21;;;;;;;2.35;1.02;;;15.00;99.90;;;;;;5075699;28;20225;-63
2022/12/29 09:04:48;;;;;;;3.13;1.40;;;15.40;99.90;;;;;;5075391;28;20201;-63
2022/12/29 09:07:15;;;;;;;9.47;4.60;;;15.60;99.90;;;;;;5075028;28;20699;-62
2022/12/29 09:09:41;;;;;;;4.28;2.60;;;15.80;99.90;;;;;;5075213;28;20263;-63
2022/12/29 09:12:08;;;;;;;2.88;1.15;;;16.20;99.90;;;;;;5074712;28;20225;-62
2022/12/29 09:14:36;;;;;;;5.90;2.40;;;16.50;99.90;;;;;;5075040;28;20208;-60
2022/12/29 09:19:47;;;;;;;4.47;2.40;;;16.70;99.90;;;;;;5074422;28;20271;-61
2022/12/29 09:22:13;;;;;;;3.17;1.35;;;16.80;99.90;;;;;;5074408;28;20220;-61
2022/12/29 09:24:40;;;;;;;2.58;1.42;;;16.80;99.90;;;;;;5075058;28;20258;-60
2022/12/29 09:27:07;;;;;;;2.95;1.60;;;16.60;99.90;;;;;;5074531;28;20201;-61
2022/12/29 09:29:34;;;;;;;2.45;1.30;;;16.60;99.90;;;;;;5074626;28;20212;-61
2022/12/29 09:32:02;;;;;;;2.20;1.35;;;16.60;99.90;;;;;;5074383;28;20240;-61
2022/12/29 09:34:28;;;;;;;2.30;1.38;;;16.60;99.90;;;;;;5074505;28;20205;-61
2022/12/29 09:36:56;;;;;;;3.28;1.48;;;16.70;99.90;;;;;;5074355;28;20228;-61
2022/12/29 09:39:23;;;;;;;4.35;1.60;;;16.80;99.90;;;;;;5074068;28;20232;-61
2022/12/29 09:41:59;;;;;;;4.25;1.20;;;16.90;99.90;;;;;;5074177;28;20229;-62
2022/12/29 09:44:37;;;;;;;1.95;1.00;;;17.00;99.90;;;;;;5074268;28;20212;-63
2022/12/29 09:47:10;;;;;;;1.38;0.98;;;17.30;99.90;;;;;;5073791;28;20205;-60
2022/12/29 09:49:45;;;;;;;3.17;1.70;;;17.40;99.90;;;;;;5073928;28;20227;-60
2022/12/29 09:52:15;;;;;;;2.67;1.30;;;17.20;99.90;;;;;;5074132;28;20235;-60
2022/12/29 09:54:51;;;;;;;2.80;1.23;;;16.90;99.90;;;;;;5073710;28;20673;-61
2022/12/29 09:57:23;;;;;;;6.15;3.10;;;16.80;99.90;;;;;;5073592;28;20221;-60
2022/12/29 09:59:53;;;;;;;1.70;1.27;;;16.80;99.90;;;;;;5073619;28;20287;-60
2022/12/29 10:02:37;;;;;;;2.47;1.20;;;16.80;99.90;;;;;;5074245;28;20644;-61
2022/12/29 10:05:05;;;;;;;3.15;1.00;;;16.80;99.90;;;;;;5073896;28;20201;-60
2022/12/29 10:07:42;;;;;;;1.95;1.02;;;16.80;99.90;;;;;;5073434;28;20205;-60
2022/12/29 10:10:23;;;;;;;2.33;1.38;;;16.80;99.90;;;;;;5073434;28;20204;-59
2022/12/29 10:13:01;;;;;;;3.92;1.58;;;17.00;99.90;;;;;;5073231;28;20232;-60
2022/12/29 10:15:41;;;;;;;1.83;1.27;;;17.20;99.90;;;;;;5073335;28;20215;-59
2022/12/29 10:18:25;;;;;;;4.10;1.02;;;17.10;99.90;;;;;;5073195;28;20232;-59
2022/12/29 10:20:56;;;;;;;2.95;1.33;;;16.90;99.90;;;;;;5073897;28;20304;-62
2022/12/29 10:23:27;;;;;;;3.47;1.33;;;16.80;99.90;;;;;;5074032;28;20693;-60
2022/12/29 10:25:56;;;;;;;1.67;1.02;;;16.90;99.90;;;;;;5074010;28;20209;-61
2022/12/29 10:28:25;;;;;;;1.92;1.08;;;17.00;99.90;;;;;;5073689;28;20602;-62
2022/12/29 10:30:54;;;;;;;2.85;1.02;;;17.00;99.90;;;;;;5073999;28;20213;-61
2022/12/29 10:33:25;;;;;;;4.00;1.38;;;17.00;99.90;;;;;;5073410;28;20224;-62
2022/12/29 10:35:52;;;;;;;3.28;1.13;;;17.10;99.90;;;;;;5074045;28;20228;-61
2022/12/29 10:38:25;;;;;;;4.07;1.48;;;17.10;99.90;;;;;;5074176;28;20247;-61
2022/12/29 10:40:57;;;;;;;1.48;1.00;;;17.30;99.90;;;;;;5073867;28;20216;-61
2022/12/29 10:43:28;;;;;;;3.60;1.17;;;17.50;99.90;;;;;;5073997;28;20229;-62
2022/12/29 10:45:57;;;;;;;1.63;1.10;;;17.70;99.90;;;;;;5074050;28;20693;-62
2022/12/29 10:48:31;;;;;;;2.72;1.30;;;17.60;99.90;;;;;;5074373;28;20204;-62
2022/12/29 10:51:00;;;;;;;2.97;1.10;;;17.40;99.90;;;;;;5073829;28;20212;-61
2022/12/29 10:53:31;;;;;;;6.10;4.57;;;17.30;99.90;;;;;;5073762;28;20211;-61
2022/12/29 10:56:01;;;;;;;4.25;1.83;;;17.10;99.90;;;;;;5073952;28;20193;-61
2022/12/29 10:58:30;;;;;;;3.80;1.70;;;17.00;99.90;;;;;;5074410;28;20221;-61
2022/12/29 11:00:56;;;;;;;1.67;1.20;;;17.00;99.90;;;;;;5073928;28;20208;-61
2022/12/29 11:03:45;;;;;;;4.43;1.65;;;16.90;99.90;;;;;;5073407;28;20591;-61
2022/12/29 11:06:17;;;;;;;2.78;1.20;;;16.80;99.90;;;;;;5076169;28;20212;-61
2022/12/29 11:08:52;;;;;;;2.08;1.08;;;16.70;99.90;;;;;;5074364;28;20205;-62
2022/12/29 11:11:25;;;;;;;2.78;1.50;;;16.80;99.90;;;;;;5073555;28;20263;-61
2022/12/29 11:13:57;;;;;;;3.97;1.20;;;16.90;99.90;;;;;;5074005;28;20232;-61
2022/12/29 11:16:32;;;;;;;2.13;1.20;;;17.00;99.90;;;;;;5074542;28;20212;-62
2022/12/29 11:19:01;;;;;;;5.10;1.45;;;17.10;99.90;;;;;;5074898;28;20227;-62
2022/12/29 11:21:33;;;;;;;4.07;1.42;;;17.20;99.90;;;;;;5075003;28;20280;-64
2022/12/29 11:24:02;;;;;;;4.35;1.42;;;17.40;99.90;;;;;;5075713;28;20204;-62
2022/12/29 11:26:30;;;;;;;2.78;1.55;;;17.50;99.90;;;;;;5075874;28;20209;-62
2022/12/29 11:29:20;;;;;;;9.27;5.65;;;17.50;99.90;;;;;;5076035;28;20208;-62
2022/12/29 11:31:49;;;;;;;5.65;2.67;;;17.50;99.90;;;;;;5076360;28;20240;-62
2022/12/29 11:34:21;;;;;;;3.35;1.70;;;17.50;99.90;;;;;;5075417;28;20231;-61
2022/12/29 11:36:51;;;;;;;4.60;1.48;;;17.50;99.90;;;;;;5075572;28;20255;-63
2022/12/29 11:39:30;;;;;;;3.13;1.50;;;17.40;99.90;;;;;;5075388;28;20229;-62
2022/12/29 11:41:58;;;;;;;4.13;1.88;;;17.10;99.90;;;;;;5075833;28;20225;-62
2022/12/29 11:44:27;;;;;;;3.30;1.23;;;17.00;99.90;;;;;;5075410;28;20207;-62
2022/12/29 11:46:54;;;;;;;3.92;1.80;;;16.80;99.90;;;;;;5073850;28;20207;-62
2022/12/29 11:49:25;;;;;;;4.63;1.80;;;16.70;99.90;;;;;;5074421;28;20201;-61
2022/12/29 11:51:56;;;;;;;5.80;1.90;;;16.70;99.90;;;;;;5073621;28;20224;-61
2022/12/29 11:54:26;;;;;;;2.42;2.20;;;16.60;99.90;;;;;;5074064;28;20246;-61
2022/12/29 11:56:54;;;;;;;3.15;1.80;;;16.60;99.90;;;;;;5074078;28;20209;-61
2022/12/29 11:59:54;;;;;;;3.35;1.70;;;16.50;99.90;;;;;;5073225;28;20221;-61
2022/12/29 12:02:36;;;;;;;3.97;1.50;;;16.60;99.90;;;;;;4992405;28;20259;-61
2022/12/29 12:05:11;;;;;;;7.28;2.05;;;16.60;99.90;;;;;;5064350;28;20205;-60
2022/12/29 12:07:41;;;;;;;4.57;1.58;;;16.50;99.90;;;;;;5072891;28;20461;-64
2022/12/29 12:10:18;;;;;;;3.15;1.20;;;16.50;99.90;;;;;;5070544;28;20243;-60
2022/12/29 12:12:52;;;;;;;3.03;1.20;;;16.40;99.90;;;;;;5071578;28;20744;-60
2022/12/29 12:15:23;;;;;;;2.57;1.10;;;16.30;99.90;;;;;;5071026;28;20201;-61
2022/12/29 12:17:55;;;;;;;2.47;1.40;;;16.10;99.90;;;;;;5071405;28;20228;-60
2022/12/29 12:20:32;;;;;;;3.00;1.40;;;16.00;99.90;;;;;;5071382;28;20205;-62
2022/12/29 12:23:08;;;;;;;4.90;1.70;;;15.90;99.90;;;;;;5071251;28;20274;-63
2022/12/29 12:25:39;;;;;;;4.30;1.70;;;15.80;99.90;;;;;;5071041;28;20296;-62
2022/12/29 12:28:12;;;;;;;5.93;1.53;;;15.60;99.90;;;;;;5071601;28;20205;-64
2022/12/29 12:30:44;;;;;;;2.57;1.23;;;15.40;99.90;;;;;;5071183;28;20696;-62
2022/12/29 12:33:19;;;;;;;2.03;1.00;;;15.20;99.90;;;;;;5072276;28;20609;-62
2022/12/29 12:36:01;;;;;;;3.77;1.50;;;15.20;99.90;;;;;;5075091;28;20204;-61
2022/12/29 12:38:39;;;;;;;2.47;1.30;;;15.20;99.90;;;;;;5074463;28;20229;-60
2022/12/29 12:41:12;;;;;;;3.45;1.30;;;15.20;99.90;;;;;;5074411;28;20580;-63
2022/12/29 12:43:42;;;;;;;3.17;1.40;;;15.30;99.90;;;;;;5074244;28;20209;-62
2022/12/29 12:46:25;;;;;;;2.60;1.27;;;15.40;99.90;;;;;;5074329;28;20709;-63
2022/12/29 12:49:09;;;;;;;2.03;1.20;;;15.40;99.90;;;;;;5074031;28;20204;-64
2022/12/29 12:51:48;;;;;;;3.03;1.20;;;15.50;99.90;;;;;;5073611;28;20760;-64
2022/12/29 12:54:30;;;;;;;2.78;1.42;;;15.70;99.90;;;;;;5073646;28;20216;-62
2022/12/29 12:57:09;;;;;;;3.58;1.70;;;15.80;99.90;;;;;;5073650;28;20209;-61
2022/12/29 12:59:44;;;;;;;3.63;1.40;;;15.80;99.90;;;;;;5073953;28;20229;-64
2022/12/29 13:02:26;;;;;;;3.03;1.30;;;15.80;99.90;;;;;;5073216;28;20227;-62
2022/12/29 13:05:05;;;;;;;2.67;1.50;;;15.80;99.90;;;;;;5073388;28;20201;-63
2022/12/29 13:07:45;;;;;;;1.80;1.20;;;15.90;99.90;;;;;;5073927;28;20667;-62
2022/12/29 13:10:30;;;;;;;3.55;1.30;;;15.90;99.90;;;;;;5073738;28;20205;-62
2022/12/29 13:13:08;;;;;;;3.67;2.28;;;15.90;99.90;;;;;;5073575;28;20225;-62
2022/12/29 13:15:46;;;;;;;2.30;1.20;;;15.80;99.90;;;;;;5072866;28;20208;-61
2022/12/29 13:18:23;;;;;;;3.05;1.38;;;15.80;99.90;;;;;;5073649;28;20205;-61
2022/12/29 13:20:57;;;;;;;3.28;1.33;;;15.80;99.90;;;;;;5073221;28;20262;-61
2022/12/29 13:23:32;;;;;;;3.63;1.48;;;15.90;99.90;;;;;;5072896;28;20208;-61
2022/12/29 13:26:09;;;;;;;2.40;1.17;;;15.90;99.90;;;;;;5073058;28;20211;-60
2022/12/29 13:28:45;;;;;;;3.72;1.58;;;16.00;99.90;;;;;;5073380;28;20204;-61
2022/12/29 13:31:20;;;;;;;2.90;1.45;;;16.00;99.90;;;;;;5073577;28;20254;-69
2022/12/29 13:33:56;;;;;;;3.85;1.30;;;16.10;99.90;;;;;;5072822;28;20607;-62
2022/12/29 13:36:28;;;;;;;2.88;1.63;;;16.00;99.90;;;;;;5074217;28;20209;-62
2022/12/29 13:39:03;;;;;;;1.92;1.50;;;16.00;99.90;;;;;;5073139;28;20701;-63
2022/12/29 13:41:34;;;;;;;2.13;1.30;;;15.90;99.90;;;;;;5074237;28;20231;-62
2022/12/29 13:44:04;;;;;;;1.85;1.42;;;15.80;99.90;;;;;;5073284;28;20204;-60
2022/12/29 13:46:37;;;;;;;3.37;1.50;;;15.70;99.90;;;;;;5072938;28;20216;-61